sensor_id;sensor_type;location;lat;lon;timestamp;temperature;humidity
20881;DHT22;10600;53.096;8.802;2024-03-17T00:00:11;4.20;99.90
20881;DHT22;10600;53.096;8.802;2024-03-17T00:01:15;4.20;99.90
20881;DHT22;10600;53.096;8.802;2024-03-17T00:02:15;4.20;99.90
20881;DHT22;10600;53.096;8.802;2024-03-17T00:03:16;4.20;99.90
20881;DHT22;10600;53.096;8.802;2024-03-17T00:04:16;4.20;99.90
20881;DHT22;10600;53.096;8.802;2024-03-17T00:05:17;4.20;99.90
20881;DHT22;10600;53.096;8.802;2024-03-17T00:06:19;4.10;99.90
20881;DHT22;10600;53.096;8.802;2024-03-17T00:07:19;4.20;99.90
20881;DHT22;10600;53.096;8.802;2024-03-17T00:08:20;4.20;99.90
20881;DHT22;10600;53.096;8.802;2024-03-17T00:09:21;4.10;99.90
20881;DHT22;10600;53.096;8.802;2024-03-17T00:10:22;4.10;99.90
20881;DHT22;10600;53.096;8.802;2024-03-17T00:11:22;4.10;99.90
20881;DHT22;10600;53.096;8.802;2024-03-17T00:12:23;4.10;99.90
20881;DHT22;10600;53.096;8.802;2024-03-17T00:13:24;4.10;99.90
20881;DHT22;10600;53.096;8.802;2024-03-17T00:14:25;4.10;99.90
20881;DHT22;10600;53.096;8.802;2024-03-17T00:15:28;4.10;99.90
20881;DHT22;10600;53.096;8.802;2024-03-17T00:16:29;4.20;99.90
20881;DHT22;10600;53.096;8.802;2024-03-17T00:17:29;4.10;99.90
20881;DHT22;10600;53.096;8.802;2024-03-17T00:18:30;4.10;99.90
20881;DHT22;10600;53.096;8.802;2024-03-17T00:19:30;4.20;99.90
20881;DHT22;10600;53.096;8.802;2024-03-17T00:20:31;4.10;99.90
20881;DHT22;10600;53.096;8.802;2024-03-17T00:21:32;4.20;99.90
20881;DHT22;10600;53.096;8.802;2024-03-17T00:22:33;4.20;99.90
20881;DHT22;10600;53.096;8.802;2024-03-17T00:23:37;4.10;99.90
20881;DHT22;10600;53.096;8.802;2024-03-17T00:24:38;4.10;99.90
20881;DHT22;10600;53.096;8.802;2024-03-17T00:25:39;4.20;99.90
20881;DHT22;10600;53.096;8.802;2024-03-17T00:26:40;4.20;99.90
20881;DHT22;10600;53.096;8.802;2024-03-17T00:27:41;4.20;99.90
20881;DHT22;10600;53.096;8.802;2024-03-17T00:28:44;4.20;99.90
20881;DHT22;10600;53.096;8.802;2024-03-17T00:29:47;4.20;99.90
20881;DHT22;10600;53.096;8.802;2024-03-17T00:30:47;4.10;99.90
20881;DHT22;10600;53.096;8.802;2024-03-17T00:31:48;4.20;99.90
20881;DHT22;10600;53.096;8.802;2024-03-17T00:32:48;4.20;99.90
20881;DHT22;10600;53.096;8.802;2024-03-17T00:33:52;4.20;99.90
20881;DHT22;10600;53.096;8.802;2024-03-17T00:34:52;4.20;99.90
20881;DHT22;10600;53.096;8.802;2024-03-17T00:35:53;4.20;99.90
20881;DHT22;10600;53.096;8.802;2024-03-17T00:36:54;4.20;99.90
20881;DHT22;10600;53.096;8.802;2024-03-17T00:37:55;4.20;99.90
20881;DHT22;10600;53.096;8.802;2024-03-17T00:38:55;4.20;99.90
20881;DHT22;10600;53.096;8.802;2024-03-17T00:39:57;4.20;99.90
20881;DHT22;10600;53.096;8.802;2024-03-17T00:40:58;4.20;99.90
20881;DHT22;10600;53.096;8.802;2024-03-17T00:41:58;4.20;99.90
20881;DHT22;10600;53.096;8.802;2024-03-17T00:42:59;4.10;99.90
20881;DHT22;10600;53.096;8.802;2024-03-17T00:44:00;4.10;99.90
20881;DHT22;10600;53.096;8.802;2024-03-17T00:45:01;4.10;99.90
20881;DHT22;10600;53.096;8.802;2024-03-17T00:46:02;4.10;99.90
20881;DHT22;10600;53.096;8.802;2024-03-17T00:47:02;4.10;99.90
20881;DHT22;10600;53.096;8.802;2024-03-17T00:48:03;4.10;99.90
20881;DHT22;10600;53.096;8.802;2024-03-17T00:49:05;4.10;99.90
20881;DHT22;10600;53.096;8.802;2024-03-17T00:50:06;4.10;99.90
20881;DHT22;10600;53.096;8.802;2024-03-17T00:51:08;4.10;99.90
20881;DHT22;10600;53.096;8.802;2024-03-17T00:52:09;4.10;99.90
20881;DHT22;10600;53.096;8.802;2024-03-17T00:53:10;4.10;99.90
20881;DHT22;10600;53.096;8.802;2024-03-17T00:54:10;4.10;99.90
20881;DHT22;10600;53.096;8.802;2024-03-17T00:55:11;4.00;99.90
20881;DHT22;10600;53.096;8.802;2024-03-17T00:56:11;4.00;99.90
20881;DHT22;10600;53.096;8.802;2024-03-17T00:57:12;4.00;99.90
20881;DHT22;10600;53.096;8.802;2024-03-17T00:58:12;4.00;99.90
20881;DHT22;10600;53.096;8.802;2024-03-17T00:59:13;4.00;99.90
20881;DHT22;10600;53.096;8.802;2024-03-17T01:00:14;4.00;99.90
20881;DHT22;10600;53.096;8.802;2024-03-17T01:01:15;4.00;99.90
20881;DHT22;10600;53.096;8.802;2024-03-17T01:02:16;4.10;99.90
20881;DHT22;10600;53.096;8.802;2024-03-17T01:03:17;4.00;99.90
20881;DHT22;10600;53.096;8.802;2024-03-17T01:04:17;4.00;99.90
20881;DHT22;10600;53.096;8.802;2024-03-17T01:05:18;4.00;99.90
20881;DHT22;10600;53.096;8.802;2024-03-17T01:06:18;4.00;99.90
20881;DHT22;10600;53.096;8.802;2024-03-17T01:07:19;4.00;99.90
20881;DHT22;10600;53.096;8.802;2024-03-17T01:08:20;4.00;99.90
20881;DHT22;10600;53.096;8.802;2024-03-17T01:09:20;4.00;99.90
20881;DHT22;10600;53.096;8.802;2024-03-17T01:10:21;4.00;99.90
20881;DHT22;10600;53.096;8.802;2024-03-17T01:11:21;4.00;99.90
20881;DHT22;10600;53.096;8.802;2024-03-17T01:12:22;4.00;99.90
20881;DHT22;10600;53.096;8.802;2024-03-17T01:13:22;4.00;99.90
20881;DHT22;10600;53.096;8.802;2024-03-17T01:14:23;4.00;99.90
20881;DHT22;10600;53.096;8.802;2024-03-17T01:15:23;4.00;99.90
20881;DHT22;10600;53.096;8.802;2024-03-17T01:16:24;4.00;99.90
20881;DHT22;10600;53.096;8.802;2024-03-17T01:17:25;3.90;99.90
20881;DHT22;10600;53.096;8.802;2024-03-17T01:18:25;4.00;99.90
20881;DHT22;10600;53.096;8.802;2024-03-17T01:19:26;4.00;99.90
20881;DHT22;10600;53.096;8.802;2024-03-17T01:20:27;3.90;99.90
20881;DHT22;10600;53.096;8.802;2024-03-17T01:21:27;3.90;99.90
20881;DHT22;10600;53.096;8.802;2024-03-17T01:22:28;3.90;99.90
20881;DHT22;10600;53.096;8.802;2024-03-17T01:23:28;3.90;99.90
20881;DHT22;10600;53.096;8.802;2024-03-17T01:24:29;3.90;99.90
20881;DHT22;10600;53.096;8.802;2024-03-17T01:25:34;3.90;99.90
20881;DHT22;10600;53.096;8.802;2024-03-17T01:26:37;3.90;99.90
20881;DHT22;10600;53.096;8.802;2024-03-17T01:27:38;3.90;99.90
20881;DHT22;10600;53.096;8.802;2024-03-17T01:28:39;3.90;99.90
20881;DHT22;10600;53.096;8.802;2024-03-17T01:29:39;3.90;99.90
20881;DHT22;10600;53.096;8.802;2024-03-17T01:30:40;3.80;99.90
20881;DHT22;10600;53.096;8.802;2024-03-17T01:31:41;3.80;99.90
20881;DHT22;10600;53.096;8.802;2024-03-17T01:32:41;3.80;99.90
20881;DHT22;10600;53.096;8.802;2024-03-17T01:33:42;3.80;99.90
20881;DHT22;10600;53.096;8.802;2024-03-17T01:34:42;3.80;99.90
20881;DHT22;10600;53.096;8.802;2024-03-17T01:35:43;3.80;99.90
20881;DHT22;10600;53.096;8.802;2024-03-17T01:36:44;3.80;99.90
20881;DHT22;10600;53.096;8.802;2024-03-17T01:37:44;3.80;99.90
20881;DHT22;10600;53.096;8.802;2024-03-17T01:38:45;3.80;99.90
20881;DHT22;10600;53.096;8.802;2024-03-17T01:39:45;3.80;99.90
20881;DHT22;10600;53.096;8.802;2024-03-17T01:40:46;3.80;99.90
20881;DHT22;10600;53.096;8.802;2024-03-17T01:41:47;3.70;99.90
20881;DHT22;10600;53.096;8.802;2024-03-17T01:42:48;3.70;99.90
20881;DHT22;10600;53.096;8.802;2024-03-17T01:43:48;3.70;99.90
20881;DHT22;10600;53.096;8.802;2024-03-17T01:44:49;3.70;99.90
20881;DHT22;10600;53.096;8.802;2024-03-17T01:45:51;3.70;99.90
20881;DHT22;10600;53.096;8.802;2024-03-17T01:46:51;3.70;99.90
20881;DHT22;10600;53.096;8.802;2024-03-17T01:47:53;3.70;99.90
20881;DHT22;10600;53.096;8.802;2024-03-17T01:48:54;3.70;99.90
20881;DHT22;10600;53.096;8.802;2024-03-17T01:49:55;3.70;99.90
20881;DHT22;10600;53.096;8.802;2024-03-17T01:50:56;3.70;99.90
20881;DHT22;10600;53.096;8.802;2024-03-17T01:51:58;3.60;99.90
20881;DHT22;10600;53.096;8.802;2024-03-17T01:53:02;3.70;99.90
20881;DHT22;10600;53.096;8.802;2024-03-17T01:54:05;3.60;99.90
20881;DHT22;10600;53.096;8.802;2024-03-17T01:55:06;3.60;99.90
20881;DHT22;10600;53.096;8.802;2024-03-17T01:56:07;3.60;99.90
20881;DHT22;10600;53.096;8.802;2024-03-17T01:57:10;3.60;99.90
20881;DHT22;10600;53.096;8.802;2024-03-17T01:58:11;3.60;99.90
20881;DHT22;10600;53.096;8.802;2024-03-17T01:59:12;3.60;99.90
20881;DHT22;10600;53.096;8.802;2024-03-17T02:00:14;3.60;99.90
20881;DHT22;10600;53.096;8.802;2024-03-17T02:01:15;3.60;99.90
20881;DHT22;10600;53.096;8.802;2024-03-17T02:02:16;3.60;99.90
20881;DHT22;10600;53.096;8.802;2024-03-17T02:03:16;3.50;99.90
20881;DHT22;10600;53.096;8.802;2024-03-17T02:04:17;3.50;99.90
20881;DHT22;10600;53.096;8.802;2024-03-17T02:05:18;3.50;99.90
20881;DHT22;10600;53.096;8.802;2024-03-17T02:06:19;3.50;99.90
20881;DHT22;10600;53.096;8.802;2024-03-17T02:07:19;3.50;99.90
20881;DHT22;10600;53.096;8.802;2024-03-17T02:08:20;3.50;99.90
20881;DHT22;10600;53.096;8.802;2024-03-17T02:09:22;3.50;99.90
20881;DHT22;10600;53.096;8.802;2024-03-17T02:10:23;3.50;99.90
20881;DHT22;10600;53.096;8.802;2024-03-17T02:11:24;3.50;99.90
20881;DHT22;10600;53.096;8.802;2024-03-17T02:12:25;3.50;99.90
20881;DHT22;10600;53.096;8.802;2024-03-17T02:13:26;3.50;99.90
20881;DHT22;10600;53.096;8.802;2024-03-17T02:14:26;3.50;99.90
20881;DHT22;10600;53.096;8.802;2024-03-17T02:15:27;3.50;99.90
20881;DHT22;10600;53.096;8.802;2024-03-17T02:16:28;3.50;99.90
20881;DHT22;10600;53.096;8.802;2024-03-17T02:17:28;3.50;99.90
20881;DHT22;10600;53.096;8.802;2024-03-17T02:18:29;3.50;99.90
20881;DHT22;10600;53.096;8.802;2024-03-17T02:19:29;3.50;99.90
20881;DHT22;10600;53.096;8.802;2024-03-17T02:20:30;3.50;99.90
20881;DHT22;10600;53.096;8.802;2024-03-17T02:21:49;3.50;99.90
20881;DHT22;10600;53.096;8.802;2024-03-17T02:22:50;3.50;99.90
20881;DHT22;10600;53.096;8.802;2024-03-17T02:23:51;3.50;99.90
20881;DHT22;10600;53.096;8.802;2024-03-17T02:24:52;3.50;99.90
20881;DHT22;10600;53.096;8.802;2024-03-17T02:25:53;3.50;99.90
20881;DHT22;10600;53.096;8.802;2024-03-17T02:26:53;3.50;99.90
20881;DHT22;10600;53.096;8.802;2024-03-17T02:27:54;3.50;99.90
20881;DHT22;10600;53.096;8.802;2024-03-17T02:28:55;3.40;99.90
20881;DHT22;10600;53.096;8.802;2024-03-17T02:29:56;3.50;99.90
20881;DHT22;10600;53.096;8.802;2024-03-17T02:30:56;3.50;99.90
20881;DHT22;10600;53.096;8.802;2024-03-17T02:31:57;3.50;99.90
20881;DHT22;10600;53.096;8.802;2024-03-17T02:32:57;3.50;99.90
20881;DHT22;10600;53.096;8.802;2024-03-17T02:33:58;3.50;99.90
20881;DHT22;10600;53.096;8.802;2024-03-17T02:34:58;3.50;99.90
20881;DHT22;10600;53.096;8.802;2024-03-17T02:36:00;3.50;99.90
20881;DHT22;10600;53.096;8.802;2024-03-17T02:37:02;3.50;99.90
20881;DHT22;10600;53.096;8.802;2024-03-17T02:38:05;3.50;99.90
20881;DHT22;10600;53.096;8.802;2024-03-17T02:39:06;3.50;99.90
20881;DHT22;10600;53.096;8.802;2024-03-17T02:40:25;3.50;99.90
20881;DHT22;10600;53.096;8.802;2024-03-17T02:41:26;3.50;99.90
20881;DHT22;10600;53.096;8.802;2024-03-17T02:42:27;3.50;99.90
20881;DHT22;10600;53.096;8.802;2024-03-17T02:43:27;3.50;99.90
20881;DHT22;10600;53.096;8.802;2024-03-17T02:44:30;3.50;99.90
20881;DHT22;10600;53.096;8.802;2024-03-17T02:45:31;3.50;99.90
20881;DHT22;10600;53.096;8.802;2024-03-17T02:46:32;3.40;99.90
20881;DHT22;10600;53.096;8.802;2024-03-17T02:47:34;3.50;99.90
20881;DHT22;10600;53.096;8.802;2024-03-17T02:48:35;3.40;99.90
20881;DHT22;10600;53.096;8.802;2024-03-17T02:49:37;3.40;99.90
20881;DHT22;10600;53.096;8.802;2024-03-17T02:50:39;3.40;99.90
20881;DHT22;10600;53.096;8.802;2024-03-17T02:51:40;3.40;99.90
20881;DHT22;10600;53.096;8.802;2024-03-17T02:52:40;3.40;99.90
20881;DHT22;10600;53.096;8.802;2024-03-17T02:53:41;3.40;99.90
20881;DHT22;10600;53.096;8.802;2024-03-17T02:54:42;3.40;99.90
20881;DHT22;10600;53.096;8.802;2024-03-17T02:55:43;3.30;99.90
20881;DHT22;10600;53.096;8.802;2024-03-17T02:56:43;3.30;99.90
20881;DHT22;10600;53.096;8.802;2024-03-17T02:57:44;3.30;99.90
20881;DHT22;10600;53.096;8.802;2024-03-17T02:58:46;3.30;99.90
20881;DHT22;10600;53.096;8.802;2024-03-17T02:59:47;3.30;99.90
20881;DHT22;10600;53.096;8.802;2024-03-17T03:00:48;3.30;99.90
20881;DHT22;10600;53.096;8.802;2024-03-17T03:01:48;3.30;99.90
20881;DHT22;10600;53.096;8.802;2024-03-17T03:02:49;3.20;99.90
20881;DHT22;10600;53.096;8.802;2024-03-17T03:03:49;3.20;99.90
20881;DHT22;10600;53.096;8.802;2024-03-17T03:04:50;3.20;99.90
20881;DHT22;10600;53.096;8.802;2024-03-17T03:05:51;3.20;99.90
20881;DHT22;10600;53.096;8.802;2024-03-17T03:06:53;3.20;99.90
20881;DHT22;10600;53.096;8.802;2024-03-17T03:07:53;3.20;99.90
20881;DHT22;10600;53.096;8.802;2024-03-17T03:08:54;3.30;99.90
20881;DHT22;10600;53.096;8.802;2024-03-17T03:09:54;3.30;99.90
20881;DHT22;10600;53.096;8.802;2024-03-17T03:10:55;3.30;99.90
20881;DHT22;10600;53.096;8.802;2024-03-17T03:11:55;3.30;99.90
20881;DHT22;10600;53.096;8.802;2024-03-17T03:12:56;3.30;99.90
20881;DHT22;10600;53.096;8.802;2024-03-17T03:13:57;3.30;99.90
20881;DHT22;10600;53.096;8.802;2024-03-17T03:14:58;3.30;99.90
20881;DHT22;10600;53.096;8.802;2024-03-17T03:15:59;3.30;99.90
20881;DHT22;10600;53.096;8.802;2024-03-17T03:16:59;3.20;99.90
20881;DHT22;10600;53.096;8.802;2024-03-17T03:18:00;3.20;99.90
20881;DHT22;10600;53.096;8.802;2024-03-17T03:19:01;3.20;99.90
20881;DHT22;10600;53.096;8.802;2024-03-17T03:20:01;3.20;99.90
20881;DHT22;10600;53.096;8.802;2024-03-17T03:21:03;3.20;99.90
20881;DHT22;10600;53.096;8.802;2024-03-17T03:22:03;3.20;99.90
20881;DHT22;10600;53.096;8.802;2024-03-17T03:23:04;3.10;99.90
20881;DHT22;10600;53.096;8.802;2024-03-17T03:24:04;3.10;99.90
20881;DHT22;10600;53.096;8.802;2024-03-17T03:25:05;3.10;99.90
20881;DHT22;10600;53.096;8.802;2024-03-17T03:26:05;3.10;99.90
20881;DHT22;10600;53.096;8.802;2024-03-17T03:27:09;3.10;99.90
20881;DHT22;10600;53.096;8.802;2024-03-17T03:28:09;3.10;99.90
20881;DHT22;10600;53.096;8.802;2024-03-17T03:29:10;3.20;99.90
20881;DHT22;10600;53.096;8.802;2024-03-17T03:30:11;3.20;99.90
20881;DHT22;10600;53.096;8.802;2024-03-17T03:31:13;3.20;99.90
20881;DHT22;10600;53.096;8.802;2024-03-17T03:32:14;3.20;99.90
20881;DHT22;10600;53.096;8.802;2024-03-17T03:33:14;3.20;99.90
20881;DHT22;10600;53.096;8.802;2024-03-17T03:34:15;3.20;99.90
20881;DHT22;10600;53.096;8.802;2024-03-17T03:35:15;3.30;99.90
20881;DHT22;10600;53.096;8.802;2024-03-17T03:36:16;3.30;99.90
20881;DHT22;10600;53.096;8.802;2024-03-17T03:37:19;3.30;99.90
20881;DHT22;10600;53.096;8.802;2024-03-17T03:38:20;3.30;99.90
20881;DHT22;10600;53.096;8.802;2024-03-17T03:39:20;3.30;99.90
20881;DHT22;10600;53.096;8.802;2024-03-17T03:40:21;3.30;99.90
20881;DHT22;10600;53.096;8.802;2024-03-17T03:41:23;3.30;99.90
20881;DHT22;10600;53.096;8.802;2024-03-17T03:42:24;3.30;99.90
20881;DHT22;10600;53.096;8.802;2024-03-17T03:43:25;3.30;99.90
20881;DHT22;10600;53.096;8.802;2024-03-17T03:44:28;3.30;99.90
20881;DHT22;10600;53.096;8.802;2024-03-17T03:45:28;3.30;99.90
20881;DHT22;10600;53.096;8.802;2024-03-17T03:46:29;3.30;99.90
20881;DHT22;10600;53.096;8.802;2024-03-17T03:47:29;3.30;99.90
20881;DHT22;10600;53.096;8.802;2024-03-17T03:48:30;3.30;99.90
20881;DHT22;10600;53.096;8.802;2024-03-17T03:49:31;3.30;99.90
20881;DHT22;10600;53.096;8.802;2024-03-17T03:50:32;3.30;99.90
20881;DHT22;10600;53.096;8.802;2024-03-17T03:51:33;3.30;99.90
20881;DHT22;10600;53.096;8.802;2024-03-17T03:52:34;3.30;99.90
20881;DHT22;10600;53.096;8.802;2024-03-17T03:53:34;3.30;99.90
20881;DHT22;10600;53.096;8.802;2024-03-17T03:54:35;3.30;99.90
20881;DHT22;10600;53.096;8.802;2024-03-17T03:55:37;3.30;99.90
20881;DHT22;10600;53.096;8.802;2024-03-17T03:56:37;3.30;99.90
20881;DHT22;10600;53.096;8.802;2024-03-17T03:57:38;3.30;99.90
20881;DHT22;10600;53.096;8.802;2024-03-17T03:58:40;3.30;99.90
20881;DHT22;10600;53.096;8.802;2024-03-17T03:59:41;3.30;99.90
20881;DHT22;10600;53.096;8.802;2024-03-17T04:00:41;3.30;99.90
20881;DHT22;10600;53.096;8.802;2024-03-17T04:01:42;3.30;99.90
20881;DHT22;10600;53.096;8.802;2024-03-17T04:02:43;3.30;99.90
20881;DHT22;10600;53.096;8.802;2024-03-17T04:03:43;3.30;99.90
20881;DHT22;10600;53.096;8.802;2024-03-17T04:04:44;3.30;99.90
20881;DHT22;10600;53.096;8.802;2024-03-17T04:05:44;3.30;99.90
20881;DHT22;10600;53.096;8.802;2024-03-17T04:06:45;3.30;99.90
20881;DHT22;10600;53.096;8.802;2024-03-17T04:07:46;3.30;99.90
20881;DHT22;10600;53.096;8.802;2024-03-17T04:08:47;3.30;99.90
20881;DHT22;10600;53.096;8.802;2024-03-17T04:09:48;3.30;99.90
20881;DHT22;10600;53.096;8.802;2024-03-17T04:10:49;3.40;99.90
20881;DHT22;10600;53.096;8.802;2024-03-17T04:11:49;3.30;99.90
20881;DHT22;10600;53.096;8.802;2024-03-17T04:12:50;3.30;99.90
20881;DHT22;10600;53.096;8.802;2024-03-17T04:13:50;3.30;99.90
20881;DHT22;10600;53.096;8.802;2024-03-17T04:14:51;3.30;99.90
20881;DHT22;10600;53.096;8.802;2024-03-17T04:15:53;3.30;99.90
20881;DHT22;10600;53.096;8.802;2024-03-17T04:16:57;3.30;99.90
20881;DHT22;10600;53.096;8.802;2024-03-17T04:17:58;3.30;99.90
20881;DHT22;10600;53.096;8.802;2024-03-17T04:18:59;3.30;99.90
20881;DHT22;10600;53.096;8.802;2024-03-17T04:19:59;3.30;99.90
20881;DHT22;10600;53.096;8.802;2024-03-17T04:21:04;3.30;99.90
20881;DHT22;10600;53.096;8.802;2024-03-17T04:22:05;3.40;99.90
20881;DHT22;10600;53.096;8.802;2024-03-17T04:23:07;3.40;99.90
20881;DHT22;10600;53.096;8.802;2024-03-17T04:24:08;3.40;99.90
20881;DHT22;10600;53.096;8.802;2024-03-17T04:25:09;3.40;99.90
20881;DHT22;10600;53.096;8.802;2024-03-17T04:26:10;3.40;99.90
20881;DHT22;10600;53.096;8.802;2024-03-17T04:27:10;3.40;99.90
20881;DHT22;10600;53.096;8.802;2024-03-17T04:28:11;3.40;99.90
20881;DHT22;10600;53.096;8.802;2024-03-17T04:29:12;3.50;99.90
20881;DHT22;10600;53.096;8.802;2024-03-17T04:30:12;3.50;99.90
20881;DHT22;10600;53.096;8.802;2024-03-17T04:31:14;3.50;99.90
20881;DHT22;10600;53.096;8.802;2024-03-17T04:32:16;3.60;99.90
20881;DHT22;10600;53.096;8.802;2024-03-17T04:33:16;3.60;99.90
20881;DHT22;10600;53.096;8.802;2024-03-17T04:34:17;3.60;99.90
20881;DHT22;10600;53.096;8.802;2024-03-17T04:35:17;3.70;99.90
20881;DHT22;10600;53.096;8.802;2024-03-17T04:36:18;3.70;99.90
20881;DHT22;10600;53.096;8.802;2024-03-17T04:37:19;3.70;99.90
20881;DHT22;10600;53.096;8.802;2024-03-17T04:38:19;3.70;99.90
20881;DHT22;10600;53.096;8.802;2024-03-17T04:39:20;3.80;99.90
20881;DHT22;10600;53.096;8.802;2024-03-17T04:40:21;3.80;99.90
20881;DHT22;10600;53.096;8.802;2024-03-17T04:41:22;3.80;99.90
20881;DHT22;10600;53.096;8.802;2024-03-17T04:42:23;3.90;99.90
20881;DHT22;10600;53.096;8.802;2024-03-17T04:43:24;3.90;99.90
20881;DHT22;10600;53.096;8.802;2024-03-17T04:44:24;3.90;99.90
20881;DHT22;10600;53.096;8.802;2024-03-17T04:45:25;3.90;99.90
20881;DHT22;10600;53.096;8.802;2024-03-17T04:46:26;3.90;99.90
20881;DHT22;10600;53.096;8.802;2024-03-17T04:47:27;4.00;99.90
20881;DHT22;10600;53.096;8.802;2024-03-17T04:48:27;4.00;99.90
20881;DHT22;10600;53.096;8.802;2024-03-17T04:49:28;4.00;99.90
20881;DHT22;10600;53.096;8.802;2024-03-17T04:50:28;4.10;99.90
20881;DHT22;10600;53.096;8.802;2024-03-17T04:51:32;4.10;99.90
20881;DHT22;10600;53.096;8.802;2024-03-17T04:52:33;4.10;99.90
20881;DHT22;10600;53.096;8.802;2024-03-17T04:53:34;4.10;99.90
20881;DHT22;10600;53.096;8.802;2024-03-17T04:54:34;4.10;99.90
20881;DHT22;10600;53.096;8.802;2024-03-17T04:55:35;4.10;99.90
20881;DHT22;10600;53.096;8.802;2024-03-17T04:56:36;4.10;99.90
20881;DHT22;10600;53.096;8.802;2024-03-17T04:57:36;4.10;99.90
20881;DHT22;10600;53.096;8.802;2024-03-17T04:58:37;4.20;99.90
20881;DHT22;10600;53.096;8.802;2024-03-17T04:59:37;4.20;99.90
20881;DHT22;10600;53.096;8.802;2024-03-17T05:00:38;4.20;99.90
20881;DHT22;10600;53.096;8.802;2024-03-17T05:01:39;4.20;99.90
20881;DHT22;10600;53.096;8.802;2024-03-17T05:02:40;4.20;99.90
20881;DHT22;10600;53.096;8.802;2024-03-17T05:03:41;4.20;99.90
20881;DHT22;10600;53.096;8.802;2024-03-17T05:04:41;4.20;99.90
20881;DHT22;10600;53.096;8.802;2024-03-17T05:05:42;4.20;99.90
20881;DHT22;10600;53.096;8.802;2024-03-17T05:06:43;4.20;99.90
20881;DHT22;10600;53.096;8.802;2024-03-17T05:07:46;4.20;99.90
20881;DHT22;10600;53.096;8.802;2024-03-17T05:08:47;4.20;99.90
20881;DHT22;10600;53.096;8.802;2024-03-17T05:09:47;4.20;99.90
20881;DHT22;10600;53.096;8.802;2024-03-17T05:10:48;4.20;99.90
20881;DHT22;10600;53.096;8.802;2024-03-17T05:11:50;4.20;99.90
20881;DHT22;10600;53.096;8.802;2024-03-17T05:12:52;4.20;99.90
20881;DHT22;10600;53.096;8.802;2024-03-17T05:13:52;4.20;99.90
20881;DHT22;10600;53.096;8.802;2024-03-17T05:14:53;4.20;99.90
20881;DHT22;10600;53.096;8.802;2024-03-17T05:15:54;4.20;99.90
20881;DHT22;10600;53.096;8.802;2024-03-17T05:16:55;4.20;99.90
20881;DHT22;10600;53.096;8.802;2024-03-17T05:17:55;4.20;99.90
20881;DHT22;10600;53.096;8.802;2024-03-17T05:18:56;4.20;99.90
20881;DHT22;10600;53.096;8.802;2024-03-17T05:19:56;4.20;99.90
20881;DHT22;10600;53.096;8.802;2024-03-17T05:21:03;4.20;99.90
20881;DHT22;10600;53.096;8.802;2024-03-17T05:22:04;4.20;99.90
20881;DHT22;10600;53.096;8.802;2024-03-17T05:23:04;4.20;99.90
20881;DHT22;10600;53.096;8.802;2024-03-17T05:24:05;4.30;99.90
20881;DHT22;10600;53.096;8.802;2024-03-17T05:25:06;4.30;99.90
20881;DHT22;10600;53.096;8.802;2024-03-17T05:26:07;4.30;99.90
20881;DHT22;10600;53.096;8.802;2024-03-17T05:27:08;4.30;99.90
20881;DHT22;10600;53.096;8.802;2024-03-17T05:28:09;4.30;99.90
20881;DHT22;10600;53.096;8.802;2024-03-17T05:29:09;4.30;99.90
20881;DHT22;10600;53.096;8.802;2024-03-17T05:30:10;4.30;99.90
20881;DHT22;10600;53.096;8.802;2024-03-17T05:31:11;4.40;99.90
20881;DHT22;10600;53.096;8.802;2024-03-17T05:32:15;4.40;99.90
20881;DHT22;10600;53.096;8.802;2024-03-17T05:33:16;4.30;99.90
20881;DHT22;10600;53.096;8.802;2024-03-17T05:34:18;4.30;99.90
20881;DHT22;10600;53.096;8.802;2024-03-17T05:35:18;4.30;99.90
20881;DHT22;10600;53.096;8.802;2024-03-17T05:36:19;4.30;99.90
20881;DHT22;10600;53.096;8.802;2024-03-17T05:37:20;4.30;99.90
20881;DHT22;10600;53.096;8.802;2024-03-17T05:38:25;4.30;99.90
20881;DHT22;10600;53.096;8.802;2024-03-17T05:39:26;4.30;99.90
20881;DHT22;10600;53.096;8.802;2024-03-17T05:40:26;4.30;99.90
20881;DHT22;10600;53.096;8.802;2024-03-17T05:41:27;4.30;99.90
20881;DHT22;10600;53.096;8.802;2024-03-17T05:42:28;4.30;99.90
20881;DHT22;10600;53.096;8.802;2024-03-17T05:43:30;4.30;99.90
20881;DHT22;10600;53.096;8.802;2024-03-17T05:44:31;4.30;99.90
20881;DHT22;10600;53.096;8.802;2024-03-17T05:45:53;4.30;99.90
20881;DHT22;10600;53.096;8.802;2024-03-17T05:46:54;4.30;99.90
20881;DHT22;10600;53.096;8.802;2024-03-17T05:47:57;4.30;99.90
20881;DHT22;10600;53.096;8.802;2024-03-17T05:48:57;4.30;99.90
20881;DHT22;10600;53.096;8.802;2024-03-17T05:49:58;4.30;99.90
20881;DHT22;10600;53.096;8.802;2024-03-17T05:51:01;4.30;99.90
20881;DHT22;10600;53.096;8.802;2024-03-17T05:52:03;4.30;99.90
20881;DHT22;10600;53.096;8.802;2024-03-17T05:53:04;4.30;99.90
20881;DHT22;10600;53.096;8.802;2024-03-17T05:54:04;4.40;99.90
20881;DHT22;10600;53.096;8.802;2024-03-17T05:55:05;4.30;99.90
20881;DHT22;10600;53.096;8.802;2024-03-17T05:56:06;4.40;99.90
20881;DHT22;10600;53.096;8.802;2024-03-17T05:57:11;4.40;99.90
20881;DHT22;10600;53.096;8.802;2024-03-17T05:58:14;4.40;99.90
20881;DHT22;10600;53.096;8.802;2024-03-17T05:59:14;4.40;99.90
20881;DHT22;10600;53.096;8.802;2024-03-17T06:00:15;4.40;99.90
20881;DHT22;10600;53.096;8.802;2024-03-17T06:01:16;4.40;99.90
20881;DHT22;10600;53.096;8.802;2024-03-17T06:02:16;4.40;99.90
20881;DHT22;10600;53.096;8.802;2024-03-17T06:03:19;4.50;99.90
20881;DHT22;10600;53.096;8.802;2024-03-17T06:04:19;4.50;99.90
20881;DHT22;10600;53.096;8.802;2024-03-17T06:05:20;4.50;99.90
20881;DHT22;10600;53.096;8.802;2024-03-17T06:06:20;4.50;99.90
20881;DHT22;10600;53.096;8.802;2024-03-17T06:07:22;4.50;99.90
20881;DHT22;10600;53.096;8.802;2024-03-17T06:08:23;4.60;99.90
20881;DHT22;10600;53.096;8.802;2024-03-17T06:09:24;4.60;99.90
20881;DHT22;10600;53.096;8.802;2024-03-17T06:10:25;4.50;99.90
20881;DHT22;10600;53.096;8.802;2024-03-17T06:11:27;4.60;99.90
20881;DHT22;10600;53.096;8.802;2024-03-17T06:12:27;4.60;99.90
20881;DHT22;10600;53.096;8.802;2024-03-17T06:13:28;4.60;99.90
20881;DHT22;10600;53.096;8.802;2024-03-17T06:14:29;4.50;99.90
20881;DHT22;10600;53.096;8.802;2024-03-17T06:15:29;4.50;99.90
20881;DHT22;10600;53.096;8.802;2024-03-17T06:16:31;4.50;99.90
20881;DHT22;10600;53.096;8.802;2024-03-17T06:17:31;4.50;99.90
20881;DHT22;10600;53.096;8.802;2024-03-17T06:18:32;4.50;99.90
20881;DHT22;10600;53.096;8.802;2024-03-17T06:19:32;4.50;99.90
20881;DHT22;10600;53.096;8.802;2024-03-17T06:20:33;4.60;99.90
20881;DHT22;10600;53.096;8.802;2024-03-17T06:21:33;4.60;99.90
20881;DHT22;10600;53.096;8.802;2024-03-17T06:22:34;4.60;99.90
20881;DHT22;10600;53.096;8.802;2024-03-17T06:23:37;4.60;99.90
20881;DHT22;10600;53.096;8.802;2024-03-17T06:24:38;4.60;99.90
20881;DHT22;10600;53.096;8.802;2024-03-17T06:25:43;4.60;99.90
20881;DHT22;10600;53.096;8.802;2024-03-17T06:26:43;4.60;99.90
20881;DHT22;10600;53.096;8.802;2024-03-17T06:27:44;4.60;99.90
20881;DHT22;10600;53.096;8.802;2024-03-17T06:28:44;4.60;99.90
20881;DHT22;10600;53.096;8.802;2024-03-17T06:29:45;4.60;99.90
20881;DHT22;10600;53.096;8.802;2024-03-17T06:30:55;4.60;99.90
20881;DHT22;10600;53.096;8.802;2024-03-17T06:31:56;4.60;99.90